NWS Home NWS Lubbock West Texas Mesonet South Sector Latest Conditions as of 1130 AM, Sun Nov 18, 2018

Latest   N   C   S   Daily Sum   3hrΔ   24hrΔ   Soil Data 
Site Map   24hr Precip   72hr Precip   Google Plot


Station Time of Last Temp Dew Pt. RH Wind Direction Wind Speed Wind Gust Max Wind Max Temp Min Temp Max RH Min RH Altimeter 1HR Rain Today's Rain Solar Rad Wind Chill
Andrews 2E  11:25 AM 35 27 72% NW25 24 mph 17° @ 0155 AM 35 31 86 72 30.34" 0 0.00 219  
Aspermont 3NE  11:25 AM 37 27 68% N813 24 mph 345° @ 0225 AM 37 33 81 68 30.36" 0 0.00 330  
Big Bend NP - Persimmon Gap  11:25 AM 50 37 62% NE1821 26 mph 28° @ 0825 AM 56 47 72 50 30.24" 0 0.00 550  
Big Lake 1WNW  11:25 AM 41 32 71% N1215 20 mph 14° @ 0111 AM 41 34 89 70 30.30" 0 0.00 529  
Brownfield 2S  11:25 AM 33 26 74% NE48 25 mph 5° @ 1240 AM 33 30 85 74 30.32" 0 0.00 269  
Clyde 2WNW  11:25 AM 35 27 71% NW1213 23 mph 345° @ 0451 AM 37 32 89 71 30.33" 0 0.00 390 27
Colorado City 5NW  11:25 AM 36 27 68% N810 21 mph 9° @ 0104 AM 37 34 83 68 30.36" 0 0.00 187  
Coyanosa 2N  11:25 AM 39 29 68% NW67 11 mph 47° @ 0509 AM 39 31 91 68 30.35" 0 0.00 237  
Crane 1NNW   11:25 AM 40 30 67% NW56 20 mph 60° @ 1244 AM 41 36 83 66 30.34" 0 0.00 490  
Dell City  11:25 AM 45 31 59% S58 14 mph 189° @ 0733 AM 45 30 87 59 30.27" 0 0.00 671  
Denver City 7WNW  11:25 AM 32 25 78% N47 23 mph 25° @ 1220 AM 32 29 87 78 30.31" 0 0.00 171  
Fluvanna 3WNW  11:25 AM 34 26 73% N611 22 mph 357° @ 0215 AM 34 31 82 72 30.32" 0 0.00 200 29
Fort Chadbourne  11:25 AM 39 29 66% N1012 22 mph 2° @ 0227 AM 39 35 86 66 30.33" 0 0.00 745  
Fort Lancaster  11:25 AM 44 34 67% N69 20 mph 358° @ 0325 AM 52 38 78 54 30.31" 0 0.00 169  
Fort McKavett  11:25 AM 44 34 66% N912 19 mph 360° @ 0541 AM 50 37 92 66 30.29" 0 0.00 421  
Gail 2ESE  11:25 AM 36 26 67% NE711 23 mph 356° @ 1235 AM 36 33 76 67 30.33" 0 0.00 167  
Graham 5SSW  11:25 AM 34 28 77% N59 23 mph 350° @ 0215 AM 34 31 83 76 30.32" 0 0.00 210  
Guadalupe Mtns Natl Park  11:25 AM 28 28 99% NE57 11 mph 45° @ 0538 AM 37 27 100 73 30.26" 0 0.00 155 22
Haskell 1NW  11:25 AM 35 27 72% N1317 24 mph 343° @ 0125 AM 38 33 84 72 30.35" 0 0.00 314 26
Hobbs NM 5NW  11:25 AM 32 26 78% N46 26 mph 26° @ 1244 AM 33 29 87 77 30.34" 0 0.00 130  
Jayton 1SSE  11:25 AM 36 27 69% NW68 21 mph 352° @ 0305 AM 36 32 82 69 30.35" 0 0.00 328  
Junction 1SSW  11:25 AM 44 36 73% N911 17 mph 11° @ 0815 AM 53 40 100 73 30.30" 0 0.00 257  
Lake Alan Henry 1NW  11:25 AM 37 29 73% N36 20 mph 12° @ 0401 AM 37 33 80 73 30.34" 0 0.00 234  
Lamesa 2SE  11:25 AM 34 27 76% N36 24 mph 9° @ 1230 AM 35 31 84 76 30.34" 0 0.00 234  
Lomax 1SSE  11:25 AM 38 28 66% N78 21 mph 8° @ 0251 AM 38 34 85 65 30.35" 0 0.00 404  
McCamey 1SSW  11:25 AM 41 31 65% NW910 20 mph 51° @ 0133 AM 44 37 79 64 30.34" 0 0.00 317  
Menard 2NW   11:25 AM 44 34 66% N912 21 mph 355° @ 1209 AM 48 37 88 65 30.30" 0 0.00 586  
Mertzon 3NNE  11:25 AM 41 30 65% N1214 17 mph 15° @ 0651 AM 42 36 89 64 30.33" 0 0.00 540  
New Home  11:25 AM 34 27 77% NE710 20 mph 9° @ 1224 AM 34 30 86 76 30.32" 0 0.00 149 28
O'Donnell 1N  11:25 AM 35 26 70% NE411 25 mph 4° @ 0110 AM 35 31 80 69 30.32" 0 0.00 260  
Plains 3N  11:25 AM 32 26 77% N46 24 mph 4° @ 0100 AM 32 29 90 77 30.31" 0 0.00 208  
Post 1NE  11:25 AM 37 27 66% N58 23 mph 359° @ 0220 AM 37 32 77 66 30.33" 0 0.00 312  
Rotan 5W  11:25 AM 36 27 70% NW58 24 mph 340° @ 1232 AM 37 33 80 70 30.35" 0 0.00 339  
San Angelo 7NW  11:25 AM 41 29 63% N811 18 mph 355° @ 0410 AM 41 37 81 62 30.33" 0 0.00 152  
Seagraves 1SW  11:25 AM 34 26 74% N48 26 mph 2° @ 1225 AM 34 30 86 74 30.32" 0 0.00 339  
Seminole 2NNE  11:25 AM 34 26 73% NW45 23 mph 4° @ 1215 AM 34 30 84 72 30.32" 0 0.00 292  
Sierra Blanca 1SSE  11:25 AM 43 30 61% E1114 16 mph 114° @ 1040 AM 45 31 91 43 30.25" 0 0.00 362  
Snyder 3E  11:25 AM 36 28 72% NW812 24 mph 2° @ 1205 AM 36 32 88 72 30.33" 0 0.00 283  
Snyder 3SSW  11:25 AM 35 27 71% N67 22 mph 23° @ 0102 AM 36 32 82 70 30.34" 0 0.00 319  
St. Lawrence 5SW  11:25 AM 38 29 70% N1012 23 mph 16° @ 0240 AM 38 34 85 70 30.31" 0 0.00 299  
Stamford 5ESE  11:25 AM 36 28 72% NW68 23 mph 357° @ 0536 AM 39 34 85 72 30.36" 0 0.00 279  
Sterling City 4WSW  11:25 AM 38 28 67% NW912 20 mph 6° @ 0148 AM 39 34 84 66 30.34" 0 0.00 261  
Sundown 8WSW  11:25 AM 33 26 74% NW58 24 mph 5° @ 0100 AM 33 29 86 74 30.30" 0 0.00 215 28
Sweetwater 11SW   11:25 AM 34 29 80% N1013 24 mph 20° @ 0119 AM 36 32 93 78 30.35" 0 0.00 281 26
Tahoka 3NNE  11:25 AM 34 27 73% N57 24 mph 8° @ 0442 AM 35 31 81 72 30.31" 0 0.00 192  
Tarzan 2WNW  11:25 AM 35 27 73% N45 22 mph 358° @ 0250 AM 35 32 82 73 30.34" 0 0.00 294  
Tatum NM 2SW  11:25 AM 31 25 79% NE25 22 mph 28° @ 1215 AM 31 28 91 79 30.31" 0 0.00 202  
Throckmorton 1SW  11:25 AM 37 27 68% N1017 23 mph 337° @ 0207 AM 39 34 83 66 30.36" 0 0.00 262  
Van Horn 3ENE  11:25 AM 41 30 64% NE1014 18 mph 25° @ 1124 AM 44 32 89 50 30.28" 0 0.00 708  
Wall 2E  11:25 AM 41 31 67% N1115 17 mph 19° @ 0305 AM 41 36 90 67 30.34" 0 0.00 536  
Weinert 2NNE  11:25 AM 36 26 67% N913 25 mph 347° @ 1218 AM 38 33 79 66 30.36" 0 0.00 268  
Welch  11:25 AM 35 27 72% N57 25 mph 6° @ 1227 AM 35 31 85 72 30.34" 0 0.00 230  

West Texas Mesonet Home   Site Map/Menu  NWS Lubbock Soil Data  Daily Summary Page  24hr Precip  72hr Precip  Google Plot